sensor_id;sensor_type;location;lat;lon;timestamp;pressure;altitude;pressure_sealevel;temperature;humidity
66486;BME280;53303;47.476;8.084;2022-08-27T00:00:21;96361.63;;;24.21;55.20
66486;BME280;53303;47.476;8.084;2022-08-27T00:02:49;96354.03;;;24.16;55.44
66486;BME280;53303;47.476;8.084;2022-08-27T00:05:16;96365.16;;;24.21;55.29
66486;BME280;53303;47.476;8.084;2022-08-27T00:07:42;96364.16;;;24.19;55.18
66486;BME280;53303;47.476;8.084;2022-08-27T00:10:13;96367.22;;;24.21;55.20
66486;BME280;53303;47.476;8.084;2022-08-27T00:12:39;96367.22;;;24.21;55.43
66486;BME280;53303;47.476;8.084;2022-08-27T00:15:06;96364.16;;;24.19;55.32
66486;BME280;53303;47.476;8.084;2022-08-27T00:17:34;96367.22;;;24.21;55.35
66486;BME280;53303;47.476;8.084;2022-08-27T00:20:01;96364.16;;;24.19;55.61
66486;BME280;53303;47.476;8.084;2022-08-27T00:22:28;96359.59;;;24.21;55.90
66486;BME280;53303;47.476;8.084;2022-08-27T00:24:54;96348.47;;;24.10;55.65
66486;BME280;53303;47.476;8.084;2022-08-27T00:27:19;96358.84;;;24.15;55.74
66486;BME280;53303;47.476;8.084;2022-08-27T00:29:46;96370.50;;;24.19;55.53
66486;BME280;53303;47.476;8.084;2022-08-27T00:32:11;96369.22;;;24.20;55.90
66486;BME280;53303;47.476;8.084;2022-08-27T00:34:42;96361.38;;;24.19;55.92
66486;BME280;53303;47.476;8.084;2022-08-27T00:37:07;96351.75;;;24.14;56.04
66486;BME280;53303;47.476;8.084;2022-08-27T00:39:34;96356.31;;;24.17;56.06
66486;BME280;53303;47.476;8.084;2022-08-27T00:42:00;96361.91;;;24.17;55.99
66486;BME280;53303;47.476;8.084;2022-08-27T00:44:26;96355.53;;;24.17;55.96
66486;BME280;53303;47.476;8.084;2022-08-27T00:46:59;96351.00;;;24.13;55.90
66486;BME280;53303;47.476;8.084;2022-08-27T00:49:31;96347.97;;;24.06;56.03
66486;BME280;53303;47.476;8.084;2022-08-27T00:52:28;96352.78;;;24.11;56.11
66486;BME280;53303;47.476;8.084;2022-08-27T00:55:23;96353.03;;;24.13;56.11
66486;BME280;53303;47.476;8.084;2022-08-27T00:57:52;96361.63;;;24.15;55.96
66486;BME280;53303;47.476;8.084;2022-08-27T01:00:20;96358.84;;;24.15;55.83
66486;BME280;53303;47.476;8.084;2022-08-27T01:02:46;96353.25;;;24.15;56.12
66486;BME280;53303;47.476;8.084;2022-08-27T01:05:16;96345.69;;;24.10;56.42
66486;BME280;53303;47.476;8.084;2022-08-27T01:07:47;96352.50;;;24.14;56.06
66486;BME280;53303;47.476;8.084;2022-08-27T01:10:16;96346.19;;;24.14;56.40
66486;BME280;53303;47.476;8.084;2022-08-27T01:12:45;96342.38;;;24.11;55.99
66486;BME280;53303;47.476;8.084;2022-08-27T01:15:14;96332.28;;;24.08;56.26
66486;BME280;53303;47.476;8.084;2022-08-27T01:17:42;96336.06;;;24.11;56.53
66486;BME280;53303;47.476;8.084;2022-08-27T01:20:14;96325.91;;;24.08;56.39
66486;BME280;53303;47.476;8.084;2022-08-27T01:25:37;96320.34;;;24.08;56.52
66486;BME280;53303;47.476;8.084;2022-08-27T01:28:08;96307.97;;;24.03;56.55
66486;BME280;53303;47.476;8.084;2022-08-27T01:30:35;96307.19;;;24.03;56.60
66486;BME280;53303;47.476;8.084;2022-08-27T01:33:10;96312.00;;;24.02;56.20
66486;BME280;53303;47.476;8.084;2022-08-27T01:35:39;96320.84;;;24.06;56.96
66486;BME280;53303;47.476;8.084;2022-08-27T01:38:05;96318.06;;;24.06;56.21
66486;BME280;53303;47.476;8.084;2022-08-27T01:40:31;96309.72;;;24.01;56.42
66486;BME280;53303;47.476;8.084;2022-08-27T01:42:58;96315.81;;;24.05;56.69
66486;BME280;53303;47.476;8.084;2022-08-27T01:45:35;96314.28;;;24.04;56.55
66486;BME280;53303;47.476;8.084;2022-08-27T01:48:02;96297.84;;;24.00;56.53
66486;BME280;53303;47.476;8.084;2022-08-27T01:50:31;96310.25;;;24.05;56.63
66486;BME280;53303;47.476;8.084;2022-08-27T01:53:05;96307.97;;;24.03;56.34
66486;BME280;53303;47.476;8.084;2022-08-27T01:55:32;96304.66;;;24.05;56.38
66486;BME280;53303;47.476;8.084;2022-08-27T01:57:59;96288.97;;;23.96;56.34
66486;BME280;53303;47.476;8.084;2022-08-27T02:00:30;96303.38;;;24.06;56.27
66486;BME280;53303;47.476;8.084;2022-08-27T02:02:57;96292.25;;;24.00;56.31
66486;BME280;53303;47.476;8.084;2022-08-27T02:05:24;96296.31;;;24.05;56.59
66486;BME280;53303;47.476;8.084;2022-08-27T02:07:54;96291.75;;;24.02;56.37
66486;BME280;53303;47.476;8.084;2022-08-27T02:10:24;96292.72;;;24.04;56.34
66486;BME280;53303;47.476;8.084;2022-08-27T02:12:50;96279.84;;;24.01;56.25
66486;BME280;53303;47.476;8.084;2022-08-27T02:15:17;96286.69;;;24.00;56.32
66486;BME280;53303;47.476;8.084;2022-08-27T02:17:44;96290.72;;;24.05;56.01
66486;BME280;53303;47.476;8.084;2022-08-27T02:20:10;96297.28;;;24.07;56.39
66486;BME280;53303;47.476;8.084;2022-08-27T02:22:36;96286.41;;;24.04;56.19
66486;BME280;53303;47.476;8.084;2022-08-27T02:25:02;96288.94;;;24.07;56.45
66486;BME280;53303;47.476;8.084;2022-08-27T02:27:28;96282.59;;;24.07;56.17
66486;BME280;53303;47.476;8.084;2022-08-27T02:29:55;96288.69;;;24.05;56.50
66486;BME280;53303;47.476;8.084;2022-08-27T02:32:21;96278.59;;;23.97;56.39
66486;BME280;53303;47.476;8.084;2022-08-27T02:34:46;96284.88;;;24.03;56.54
66486;BME280;53303;47.476;8.084;2022-08-27T02:37:12;96284.13;;;24.02;56.50
66486;BME280;53303;47.476;8.084;2022-08-27T02:39:37;96285.66;;;24.03;56.51
66486;BME280;53303;47.476;8.084;2022-08-27T02:42:03;96275.78;;;23.97;56.09
66486;BME280;53303;47.476;8.084;2022-08-27T02:44:30;96286.41;;;24.04;56.09
66486;BME280;53303;47.476;8.084;2022-08-27T02:46:57;96287.66;;;24.03;56.02
66486;BME280;53303;47.476;8.084;2022-08-27T02:49:24;96275.28;;;23.98;56.26
66486;BME280;53303;47.476;8.084;2022-08-27T02:51:54;96286.41;;;24.04;56.34
66486;BME280;53303;47.476;8.084;2022-08-27T02:54:20;96286.41;;;24.04;56.29
66486;BME280;53303;47.476;8.084;2022-08-27T02:56:46;96275.78;;;24.02;56.43
66486;BME280;53303;47.476;8.084;2022-08-27T02:59:12;96279.34;;;23.97;56.27
66486;BME280;53303;47.476;8.084;2022-08-27T03:01:37;96274.28;;;23.95;56.08
66486;BME280;53303;47.476;8.084;2022-08-27T03:04:03;96276.00;;;24.04;56.22
66486;BME280;53303;47.476;8.084;2022-08-27T03:06:28;96278.56;;;24.02;56.14
66486;BME280;53303;47.476;8.084;2022-08-27T03:08:56;96267.91;;;24.01;55.92
66486;BME280;53303;47.476;8.084;2022-08-27T03:11:21;96274.00;;;24.05;55.97
66486;BME280;53303;47.476;8.084;2022-08-27T03:13:47;96269.16;;;24.05;56.18
66486;BME280;53303;47.476;8.084;2022-08-27T03:16:13;96255.25;;;24.00;56.14
66486;BME280;53303;47.476;8.084;2022-08-27T03:18:41;96268.41;;;24.05;56.08
66486;BME280;53303;47.476;8.084;2022-08-27T03:21:06;96260.56;;;24.03;56.05
66486;BME280;53303;47.476;8.084;2022-08-27T03:23:34;96258.81;;;24.00;56.17
66486;BME280;53303;47.476;8.084;2022-08-27T03:26:02;96253.47;;;24.02;56.21
66486;BME280;53303;47.476;8.084;2022-08-27T03:28:33;96255.25;;;24.00;56.36
66486;BME280;53303;47.476;8.084;2022-08-27T03:31:02;96249.69;;;24.00;56.18
66486;BME280;53303;47.476;8.084;2022-08-27T03:33:30;96249.69;;;24.00;56.12
66486;BME280;53303;47.476;8.084;2022-08-27T03:35:57;96241.34;;;23.94;56.26
66486;BME280;53303;47.476;8.084;2022-08-27T03:38:25;96243.88;;;23.98;56.21
66486;BME280;53303;47.476;8.084;2022-08-27T03:40:51;96200.69;;;23.63;56.23
66486;BME280;53303;47.476;8.084;2022-08-27T03:43:18;96243.88;;;23.98;56.06
66486;BME280;53303;47.476;8.084;2022-08-27T03:45:45;96235.50;;;23.98;56.43
66486;BME280;53303;47.476;8.084;2022-08-27T03:48:12;96234.03;;;23.91;56.29
66486;BME280;53303;47.476;8.084;2022-08-27T03:50:41;96233.00;;;23.94;56.14
66486;BME280;53303;47.476;8.084;2022-08-27T03:53:09;96237.56;;;23.91;56.12
66486;BME280;53303;47.476;8.084;2022-08-27T03:55:35;96239.56;;;23.97;56.25
66486;BME280;53303;47.476;8.084;2022-08-27T03:58:03;96228.19;;;23.94;56.22
66486;BME280;53303;47.476;8.084;2022-08-27T04:00:28;96235.78;;;23.94;56.09
66486;BME280;53303;47.476;8.084;2022-08-27T04:02:54;96237.81;;;23.88;56.20
66486;BME280;53303;47.476;8.084;2022-08-27T04:05:21;96225.94;;;23.87;56.03
66486;BME280;53303;47.476;8.084;2022-08-27T04:07:46;96238.56;;;23.94;56.14
66486;BME280;53303;47.476;8.084;2022-08-27T04:10:13;96247.69;;;23.94;55.97
66486;BME280;53303;47.476;8.084;2022-08-27T04:12:39;96240.81;;;23.95;56.15
66486;BME280;53303;47.476;8.084;2022-08-27T04:15:06;96248.44;;;23.95;55.99
66486;BME280;53303;47.476;8.084;2022-08-27T04:17:32;96236.56;;;23.89;56.00
66486;BME280;53303;47.476;8.084;2022-08-27T04:19:58;96249.72;;;23.94;56.16
66486;BME280;53303;47.476;8.084;2022-08-27T04:22:25;96251.22;;;23.95;55.91
66486;BME280;53303;47.476;8.084;2022-08-27T04:24:51;96240.09;;;23.89;56.19
66486;BME280;53303;47.476;8.084;2022-08-27T04:27:17;96250.00;;;23.90;56.35
66486;BME280;53303;47.476;8.084;2022-08-27T04:29:43;96250.47;;;23.94;56.25
66486;BME280;53303;47.476;8.084;2022-08-27T04:32:09;96244.66;;;23.92;56.31
66486;BME280;53303;47.476;8.084;2022-08-27T04:34:34;96247.72;;;23.89;56.44
66486;BME280;53303;47.476;8.084;2022-08-27T04:37:01;96250.00;;;23.90;56.22
66486;BME280;53303;47.476;8.084;2022-08-27T04:39:28;96257.31;;;23.93;56.20
66486;BME280;53303;47.476;8.084;2022-08-27T04:41:57;96245.16;;;23.91;56.30
66486;BME280;53303;47.476;8.084;2022-08-27T04:44:26;96250.00;;;23.90;56.05
66486;BME280;53303;47.476;8.084;2022-08-27T04:46:59;96256.31;;;23.91;55.90
66486;BME280;53303;47.476;8.084;2022-08-27T04:49:28;96235.31;;;23.84;56.17
66486;BME280;53303;47.476;8.084;2022-08-27T04:51:54;96242.16;;;23.83;56.20
66486;BME280;53303;47.476;8.084;2022-08-27T04:54:22;96250.50;;;23.89;56.29
66486;BME280;53303;47.476;8.084;2022-08-27T04:56:48;96237.84;;;23.82;55.99
66486;BME280;53303;47.476;8.084;2022-08-27T04:59:14;96250.25;;;23.87;56.01
66486;BME280;53303;47.476;8.084;2022-08-27T05:01:40;96256.03;;;23.94;56.02
66486;BME280;53303;47.476;8.084;2022-08-27T05:04:07;96254.75;;;23.95;56.21
66486;BME280;53303;47.476;8.084;2022-08-27T05:06:33;96260.88;;;23.94;56.21
66486;BME280;53303;47.476;8.084;2022-08-27T05:09:01;96271.25;;;23.93;56.48
66486;BME280;53303;47.476;8.084;2022-08-27T05:11:27;96253.81;;;23.87;56.27
66486;BME280;53303;47.476;8.084;2022-08-27T05:13:57;96268.47;;;23.93;56.33
66486;BME280;53303;47.476;8.084;2022-08-27T05:16:23;96265.66;;;23.93;56.27
66486;BME280;53303;47.476;8.084;2022-08-27T05:18:50;96263.66;;;23.94;56.09
66486;BME280;53303;47.476;8.084;2022-08-27T05:23:42;96272.53;;;23.92;56.24
66486;BME280;53303;47.476;8.084;2022-08-27T05:26:07;96277.31;;;23.92;56.34
66486;BME280;53303;47.476;8.084;2022-08-27T05:28:33;96272.53;;;23.92;56.30
66486;BME280;53303;47.476;8.084;2022-08-27T05:31:04;96264.16;;;23.92;56.17
66486;BME280;53303;47.476;8.084;2022-08-27T05:33:30;96263.38;;;23.92;56.25
66486;BME280;53303;47.476;8.084;2022-08-27T05:35:57;96255.56;;;23.90;56.25
66486;BME280;53303;47.476;8.084;2022-08-27T05:38:28;96269.22;;;23.94;56.18
66486;BME280;53303;47.476;8.084;2022-08-27T05:41:03;96268.97;;;23.92;56.31
66486;BME280;53303;47.476;8.084;2022-08-27T05:43:33;96257.81;;;23.92;56.34
66486;BME280;53303;47.476;8.084;2022-08-27T05:46:02;96257.84;;;23.86;56.47
66486;BME280;53303;47.476;8.084;2022-08-27T05:48:32;96250.00;;;23.85;56.29
66486;BME280;53303;47.476;8.084;2022-08-27T05:51:28;96263.38;;;23.92;56.18
66486;BME280;53303;47.476;8.084;2022-08-27T05:53:57;96263.66;;;23.88;56.51
66486;BME280;53303;47.476;8.084;2022-08-27T05:56:25;96260.59;;;23.92;56.65
66486;BME280;53303;47.476;8.084;2022-08-27T05:58:55;96256.06;;;23.89;56.61
66486;BME280;53303;47.476;8.084;2022-08-27T06:01:47;96265.19;;;23.89;56.80
66486;BME280;53303;47.476;8.084;2022-08-27T06:04:17;96252.78;;;23.85;56.72
66486;BME280;53303;47.476;8.084;2022-08-27T06:06:46;96259.63;;;23.89;56.96
66486;BME280;53303;47.476;8.084;2022-08-27T06:09:17;96259.38;;;23.87;56.95
66486;BME280;53303;47.476;8.084;2022-08-27T06:11:43;96258.34;;;23.85;56.86
66486;BME280;53303;47.476;8.084;2022-08-27T06:14:09;96256.09;;;23.83;57.05
66486;BME280;53303;47.476;8.084;2022-08-27T06:16:36;96266.44;;;23.88;57.07
66486;BME280;53303;47.476;8.084;2022-08-27T06:19:02;96259.38;;;23.87;57.06
66486;BME280;53303;47.476;8.084;2022-08-27T06:21:28;96242.41;;;23.74;57.11
66486;BME280;53303;47.476;8.084;2022-08-27T06:23:54;96266.97;;;23.87;56.89
66486;BME280;53303;47.476;8.084;2022-08-27T06:26:22;96272.56;;;23.87;57.09
66486;BME280;53303;47.476;8.084;2022-08-27T06:28:48;96273.31;;;23.87;56.84
66486;BME280;53303;47.476;8.084;2022-08-27T06:31:25;96269.50;;;23.90;56.47
66486;BME280;53303;47.476;8.084;2022-08-27T06:33:52;96269.72;;;23.98;56.79
66486;BME280;53303;47.476;8.084;2022-08-27T06:36:24;96271.22;;;24.05;56.34
66486;BME280;53303;47.476;8.084;2022-08-27T06:38:49;96267.88;;;24.06;56.34
66486;BME280;53303;47.476;8.084;2022-08-27T06:41:17;96268.38;;;24.10;56.29
66486;BME280;53303;47.476;8.084;2022-08-27T06:43:46;96267.88;;;24.12;56.70
66486;BME280;53303;47.476;8.084;2022-08-27T06:46:15;96277.50;;;24.11;56.79
66486;BME280;53303;47.476;8.084;2022-08-27T06:48:41;96258.78;;;24.06;56.71
66486;BME280;53303;47.476;8.084;2022-08-27T06:51:15;96269.69;;;24.04;56.89
66486;BME280;53303;47.476;8.084;2022-08-27T06:53:42;96278.56;;;24.02;57.08
66486;BME280;53303;47.476;8.084;2022-08-27T06:56:10;96250.25;;;23.81;56.79
66486;BME280;53303;47.476;8.084;2022-08-27T06:58:38;96281.84;;;24.01;57.05
66486;BME280;53303;47.476;8.084;2022-08-27T07:01:30;96288.47;;;23.98;57.09
66486;BME280;53303;47.476;8.084;2022-08-27T07:04:03;96275.03;;;23.96;57.29
66486;BME280;53303;47.476;8.084;2022-08-27T07:06:32;96270.25;;;23.91;57.35
66486;BME280;53303;47.476;8.084;2022-08-27T07:09:00;96281.09;;;24.00;57.22
66486;BME280;53303;47.476;8.084;2022-08-27T07:11:29;96286.16;;;24.02;57.23
66486;BME280;53303;47.476;8.084;2022-08-27T07:13:57;96226.66;;;23.93;57.50
66486;BME280;53303;47.476;8.084;2022-08-27T07:16:27;96249.22;;;23.90;55.90
66486;BME280;53303;47.476;8.084;2022-08-27T07:18:55;96242.69;;;23.70;52.09
66486;BME280;53303;47.476;8.084;2022-08-27T07:21:23;96244.53;;;23.45;49.27
66486;BME280;53303;47.476;8.084;2022-08-27T07:23:50;96245.63;;;23.19;47.79
66486;BME280;53303;47.476;8.084;2022-08-27T07:26:16;96248.91;;;23.01;47.54
66486;BME280;53303;47.476;8.084;2022-08-27T07:28:43;96257.28;;;22.84;47.82
66486;BME280;53303;47.476;8.084;2022-08-27T07:31:12;96249.19;;;22.69;47.98
66486;BME280;53303;47.476;8.084;2022-08-27T07:33:40;96261.06;;;22.64;48.16
66486;BME280;53303;47.476;8.084;2022-08-27T07:36:06;96260.28;;;22.52;48.20
66486;BME280;53303;47.476;8.084;2022-08-27T07:38:33;96264.31;;;22.46;48.47
66486;BME280;53303;47.476;8.084;2022-08-27T07:41:06;96265.84;;;22.41;48.24
66486;BME280;53303;47.476;8.084;2022-08-27T07:43:32;96257.50;;;22.35;48.25
66486;BME280;53303;47.476;8.084;2022-08-27T07:46:16;96253.16;;;22.23;48.24
66486;BME280;53303;47.476;8.084;2022-08-27T07:48:41;96262.22;;;22.18;48.19
66486;BME280;53303;47.476;8.084;2022-08-27T07:51:13;96262.97;;;22.13;47.97
66486;BME280;53303;47.476;8.084;2022-08-27T07:53:39;96260.16;;;22.01;48.10
66486;BME280;53303;47.476;8.084;2022-08-27T07:56:06;96271.03;;;22.05;47.99
66486;BME280;53303;47.476;8.084;2022-08-27T07:58:32;96267.97;;;22.03;47.98
66486;BME280;53303;47.476;8.084;2022-08-27T08:00:58;96275.81;;;21.99;47.92
66486;BME280;53303;47.476;8.084;2022-08-27T08:03:24;96271.00;;;21.94;47.68
66486;BME280;53303;47.476;8.084;2022-08-27T08:05:49;96271.97;;;21.91;47.93
66486;BME280;53303;47.476;8.084;2022-08-27T08:08:18;96274.47;;;21.83;47.52
66486;BME280;53303;47.476;8.084;2022-08-27T08:10:46;96260.31;;;21.75;47.74
66486;BME280;53303;47.476;8.084;2022-08-27T08:13:13;96275.47;;;21.80;47.69
66486;BME280;53303;47.476;8.084;2022-08-27T08:15:42;96265.59;;;21.67;47.67
66486;BME280;53303;47.476;8.084;2022-08-27T08:18:08;96274.22;;;21.75;48.77
66486;BME280;53303;47.476;8.084;2022-08-27T08:20:33;96270.94;;;21.82;54.41
66486;BME280;53303;47.476;8.084;2022-08-27T08:22:59;96289.44;;;21.97;55.97
66486;BME280;53303;47.476;8.084;2022-08-27T08:25:24;96282.63;;;21.98;51.82
66486;BME280;53303;47.476;8.084;2022-08-27T08:27:50;96265.88;;;21.81;49.71
66486;BME280;53303;47.476;8.084;2022-08-27T08:30:17;96290.19;;;21.92;48.73
66486;BME280;53303;47.476;8.084;2022-08-27T08:32:43;96287.63;;;21.88;48.26
66486;BME280;53303;47.476;8.084;2022-08-27T08:35:11;96286.31;;;21.78;48.15
66486;BME280;53303;47.476;8.084;2022-08-27T08:37:37;96291.63;;;21.76;47.88
66486;BME280;53303;47.476;8.084;2022-08-27T08:40:04;96290.13;;;21.75;47.68
66486;BME280;53303;47.476;8.084;2022-08-27T08:42:36;96289.59;;;21.76;52.56
66486;BME280;53303;47.476;8.084;2022-08-27T08:45:05;96298.75;;;21.88;56.88
66486;BME280;53303;47.476;8.084;2022-08-27T08:50:06;96289.94;;;21.90;49.72
66486;BME280;53303;47.476;8.084;2022-08-27T08:52:41;96290.66;;;21.84;48.82
66486;BME280;53303;47.476;8.084;2022-08-27T09:01:08;96286.06;;;21.70;52.02
66486;BME280;53303;47.476;8.084;2022-08-27T09:03:37;96290.66;;;21.84;57.36
66486;BME280;53303;47.476;8.084;2022-08-27T09:06:31;96293.94;;;21.89;53.92
66486;BME280;53303;47.476;8.084;2022-08-27T09:09:21;96295.22;;;21.88;50.40
66486;BME280;53303;47.476;8.084;2022-08-27T09:12:26;96294.41;;;21.76;48.90
66486;BME280;53303;47.476;8.084;2022-08-27T09:14:58;96290.84;;;21.70;48.14
66486;BME280;53303;47.476;8.084;2022-08-27T09:17:25;96299.59;;;21.57;48.09
66486;BME280;53303;47.476;8.084;2022-08-27T09:19:51;96298.38;;;21.63;47.94
66486;BME280;53303;47.476;8.084;2022-08-27T09:25:17;96289.38;;;21.80;56.24
66486;BME280;53303;47.476;8.084;2022-08-27T09:27:46;96290.66;;;21.84;51.96
66486;BME280;53303;47.476;8.084;2022-08-27T09:30:18;96301.25;;;21.80;49.32
66486;BME280;53303;47.476;8.084;2022-08-27T09:33:00;96296.69;;;21.77;48.32
66486;BME280;53303;47.476;8.084;2022-08-27T09:35:41;96299.44;;;21.72;47.88
66486;BME280;53303;47.476;8.084;2022-08-27T09:38:09;96295.13;;;21.71;47.56
66486;BME280;53303;47.476;8.084;2022-08-27T09:40:41;96294.63;;;21.72;50.64
66486;BME280;53303;47.476;8.084;2022-08-27T09:45:47;96297.50;;;21.89;53.03
66486;BME280;53303;47.476;8.084;2022-08-27T09:48:17;96304.81;;;21.86;49.48
66486;BME280;53303;47.476;8.084;2022-08-27T09:50:50;96297.69;;;21.80;48.43
66486;BME280;53303;47.476;8.084;2022-08-27T09:53:29;96292.91;;;21.75;49.06
66486;BME280;53303;47.476;8.084;2022-08-27T09:56:01;96300.25;;;21.83;55.31
66486;BME280;53303;47.476;8.084;2022-08-27T09:58:30;96298.50;;;21.92;54.38
66486;BME280;53303;47.476;8.084;2022-08-27T10:01:20;96301.28;;;21.86;50.13
66486;BME280;53303;47.476;8.084;2022-08-27T10:03:46;96299.50;;;21.83;48.67
66486;BME280;53303;47.476;8.084;2022-08-27T10:06:28;96283.53;;;21.72;47.63
66486;BME280;53303;47.476;8.084;2022-08-27T10:08:59;96294.91;;;21.74;47.34
66486;BME280;53303;47.476;8.084;2022-08-27T10:11:31;96281.97;;;21.65;47.15
66486;BME280;53303;47.476;8.084;2022-08-27T10:14:19;96290.59;;;21.67;46.93
66486;BME280;53303;47.476;8.084;2022-08-27T10:16:57;96277.66;;;21.59;46.96
66486;BME280;53303;47.476;8.084;2022-08-27T10:19:45;96282.22;;;21.62;46.73
66486;BME280;53303;47.476;8.084;2022-08-27T10:30:50;96288.53;;;21.62;46.46
66486;BME280;53303;47.476;8.084;2022-08-27T10:34:01;96277.38;;;21.57;46.44
66486;BME280;53303;47.476;8.084;2022-08-27T10:36:40;96276.13;;;21.58;46.65
66486;BME280;53303;47.476;8.084;2022-08-27T10:39:31;96279.94;;;21.60;46.41
66486;BME280;53303;47.476;8.084;2022-08-27T10:45:06;96275.66;;;21.59;46.38
66486;BME280;53303;47.476;8.084;2022-08-27T10:47:43;96279.66;;;21.58;46.31
66486;BME280;53303;47.476;8.084;2022-08-27T10:53:08;96272.63;;;21.63;46.14
66486;BME280;53303;47.476;8.084;2022-08-27T10:55:41;96281.22;;;21.65;46.03
66486;BME280;53303;47.476;8.084;2022-08-27T10:58:38;96273.94;;;21.67;46.11
66486;BME280;53303;47.476;8.084;2022-08-27T11:03:49;96270.41;;;21.73;45.99
66486;BME280;53303;47.476;8.084;2022-08-27T11:06:38;96270.13;;;21.71;46.07
66486;BME280;53303;47.476;8.084;2022-08-27T11:09:16;96262.34;;;21.75;46.22
66486;BME280;53303;47.476;8.084;2022-08-27T11:11:47;96260.00;;;21.62;46.29
66486;BME280;53303;47.476;8.084;2022-08-27T11:14:27;96253.47;;;21.71;46.04
66486;BME280;53303;47.476;8.084;2022-08-27T11:16:58;96249.22;;;21.81;46.10
66486;BME280;53303;47.476;8.084;2022-08-27T11:27:23;96223.97;;;21.79;45.75
66486;BME280;53303;47.476;8.084;2022-08-27T11:30:13;96245.94;;;21.82;45.72
66486;BME280;53303;47.476;8.084;2022-08-27T11:32:49;96237.38;;;21.86;45.72
66486;BME280;53303;47.476;8.084;2022-08-27T11:35:37;96245.47;;;21.84;45.70
66486;BME280;53303;47.476;8.084;2022-08-27T11:43:34;96236.09;;;21.87;46.03
66486;BME280;53303;47.476;8.084;2022-08-27T11:46:06;96234.84;;;21.88;45.96
66486;BME280;53303;47.476;8.084;2022-08-27T11:48:41;96230.03;;;21.83;45.60
66486;BME280;53303;47.476;8.084;2022-08-27T11:51:26;96241.94;;;21.89;45.92
66486;BME280;53303;47.476;8.084;2022-08-27T11:53:55;96232.56;;;21.86;46.00
66486;BME280;53303;47.476;8.084;2022-08-27T11:59:08;96228.28;;;21.85;45.70
66486;BME280;53303;47.476;8.084;2022-08-27T12:01:34;96218.66;;;21.81;45.49
66486;BME280;53303;47.476;8.084;2022-08-27T12:06:51;96224.47;;;21.83;45.75
66486;BME280;53303;47.476;8.084;2022-08-27T12:09:22;96195.38;;;21.67;50.47
66486;BME280;53303;47.476;8.084;2022-08-27T12:11:54;96226.81;;;22.01;53.23
66486;BME280;53303;47.476;8.084;2022-08-27T12:14:52;96226.81;;;22.01;49.75
66486;BME280;53303;47.476;8.084;2022-08-27T12:17:26;96229.59;;;22.01;47.68
66486;BME280;53303;47.476;8.084;2022-08-27T12:20:13;96229.06;;;21.97;46.91
66486;BME280;53303;47.476;8.084;2022-08-27T12:25:32;96219.19;;;21.91;49.77
66486;BME280;53303;47.476;8.084;2022-08-27T12:28:05;96220.47;;;22.01;54.11
66486;BME280;53303;47.476;8.084;2022-08-27T12:30:33;96219.00;;;22.05;51.71
66486;BME280;53303;47.476;8.084;2022-08-27T12:35:50;96213.41;;;22.00;47.40
66486;BME280;53303;47.476;8.084;2022-08-27T12:41:00;96206.06;;;21.91;46.61
66486;BME280;53303;47.476;8.084;2022-08-27T12:43:34;96216.16;;;21.89;46.65
66486;BME280;53303;47.476;8.084;2022-08-27T12:46:06;96207.31;;;21.90;49.71
66486;BME280;53303;47.476;8.084;2022-08-27T12:48:39;96210.38;;;21.98;54.41
66486;BME280;53303;47.476;8.084;2022-08-27T12:51:14;96205.34;;;22.08;54.43
66486;BME280;53303;47.476;8.084;2022-08-27T13:04:26;96194.94;;;21.85;46.67
66486;BME280;53303;47.476;8.084;2022-08-27T13:06:54;96213.88;;;21.87;46.65
66486;BME280;53303;47.476;8.084;2022-08-27T13:09:29;96205.81;;;21.89;47.99
66486;BME280;53303;47.476;8.084;2022-08-27T13:11:58;96210.41;;;22.09;49.03
66486;BME280;53303;47.476;8.084;2022-08-27T13:14:26;96211.69;;;22.25;50.01
66486;BME280;53303;47.476;8.084;2022-08-27T13:17:03;96207.69;;;22.43;50.27
66486;BME280;53303;47.476;8.084;2022-08-27T13:19:35;96206.94;;;22.59;51.57
66486;BME280;53303;47.476;8.084;2022-08-27T13:22:03;96212.50;;;22.76;52.59
66486;BME280;53303;47.476;8.084;2022-08-27T13:24:45;96211.22;;;22.89;53.05
66486;BME280;53303;47.476;8.084;2022-08-27T13:27:23;96204.63;;;23.03;53.76
66486;BME280;53303;47.476;8.084;2022-08-27T13:29:52;96194.50;;;23.11;54.11
66486;BME280;53303;47.476;8.084;2022-08-27T13:32:17;96198.28;;;23.19;54.45
66486;BME280;53303;47.476;8.084;2022-08-27T13:34:43;96209.63;;;23.33;54.66
66486;BME280;53303;47.476;8.084;2022-08-27T13:37:31;96205.06;;;23.41;54.78
66486;BME280;53303;47.476;8.084;2022-08-27T13:39:57;96204.28;;;23.46;54.99
66486;BME280;53303;47.476;8.084;2022-08-27T13:42:24;96214.66;;;23.51;54.61
66486;BME280;53303;47.476;8.084;2022-08-27T13:44:52;96211.84;;;23.57;54.33
66486;BME280;53303;47.476;8.084;2022-08-27T13:47:22;96222.94;;;23.68;54.35
66486;BME280;53303;47.476;8.084;2022-08-27T13:49:49;96196.16;;;23.54;54.72
66486;BME280;53303;47.476;8.084;2022-08-27T13:52:27;96224.94;;;23.73;55.03
66486;BME280;53303;47.476;8.084;2022-08-27T13:55:15;96207.50;;;23.67;55.20
66486;BME280;53303;47.476;8.084;2022-08-27T13:57:46;96218.34;;;23.82;55.27
66486;BME280;53303;47.476;8.084;2022-08-27T14:00:16;96215.53;;;23.88;55.79
66486;BME280;53303;47.476;8.084;2022-08-27T14:02:43;96217.53;;;23.93;56.05
66486;BME280;53303;47.476;8.084;2022-08-27T14:05:27;96221.06;;;23.93;56.08
66486;BME280;53303;47.476;8.084;2022-08-27T14:07:55;96222.56;;;24.00;56.65
66486;BME280;53303;47.476;8.084;2022-08-27T14:13:04;96227.09;;;24.09;56.99
66486;BME280;53303;47.476;8.084;2022-08-27T14:15:39;96222.50;;;24.11;57.58
66486;BME280;53303;47.476;8.084;2022-08-27T14:18:27;96225.28;;;24.11;58.21
66486;BME280;53303;47.476;8.084;2022-08-27T14:20:54;96185.72;;;24.13;55.26
66486;BME280;53303;47.476;8.084;2022-08-27T14:23:20;96189.16;;;23.94;51.25
66486;BME280;53303;47.476;8.084;2022-08-27T14:25:50;96185.75;;;23.60;48.65
66486;BME280;53303;47.476;8.084;2022-08-27T14:28:16;96193.94;;;23.35;47.07
66486;BME280;53303;47.476;8.084;2022-08-27T14:30:45;96193.25;;;23.12;46.71
66486;BME280;53303;47.476;8.084;2022-08-27T14:33:13;96197.81;;;22.93;46.27